^^
Station Historical Data
Daily Summary for June 24, 2017 Units:  Both    English   Metric
« Previous Day
Next Day »
Daily Weekly Monthly Yearly Custom
  High: Low: Average:
Temperature: 72.1 °F /  22.3 °C 44.2 °F /  6.8 °C 56.6 °F /  13.7 °C
Dew Point: 33.4 °F /  0.8 °C 24.8 °F /  -4 °C 28.7 °F /  -1.8 °C
Humidity: 53% 21% 36%
Wind Speed: 11.0mph /  17.7km/h - 0.8mph /  1.3km/h
Wind Gust: 13.0mph /  20.9km/h - -
Wind- - East
Pressure: 30.43 in /  1030.4 hPa 30.29 in /  1025.6 hPa -
Precipitation: 0.00 in /  0 mm    
Historical Graphs
 
 
Tabular Data for June 24, 2017
Time Temperature Dew Point Pressure Wind Wind Speed Wind Gust Humidity Rainfall Rate (Hourly) solar Conditions
00:00 51.3 °F /  10.7 °C 26.6 °F /  -3 °C 30.40in /  1029.3hPa Calm     38% 0.00in /  0mm 0.0 W/m2
00:06 51.3 °F /  10.7 °C 26.6 °F /  -3 °C 30.40in /  1029.3hPa Calm   2.0mph /  3.2km/h 38% 0.00in /  0mm 0.0 W/m2
00:12 50.9 °F /  10.5 °C 26.2 °F /  -3.2 °C 30.39in /  1029hPa Calm   2.0mph /  3.2km/h 38% 0.00in /  0mm 0.0 W/m2
00:18 50.7 °F /  10.4 °C 26.6 °F /  -3 °C 30.39in /  1029hPa Calm     39% 0.00in /  0mm 0.0 W/m2
00:24 50.4 °F /  10.2 °C 26.4 °F /  -3.1 °C 30.39in /  1029hPa Calm   4.0mph /  6.4km/h 39% 0.00in /  0mm 0.0 W/m2
00:30 50.2 °F /  10.1 °C 26.2 °F /  -3.2 °C 30.39in /  1029hPa Calm   3.0mph /  4.8km/h 39% 0.00in /  0mm 0.0 W/m2
00:36 50.2 °F /  10.1 °C 26.2 °F /  -3.2 °C 30.39in /  1029hPa Calm   1.0mph /  1.6km/h 39% 0.00in /  0mm 0.0 W/m2
00:42 50.0 °F /  10 °C 26.1 °F /  -3.3 °C 30.39in /  1029hPa Calm   3.0mph /  4.8km/h 39% 0.00in /  0mm 0.0 W/m2
00:48 49.8 °F /  9.9 °C 25.9 °F /  -3.4 °C 30.39in /  1029hPa Calm   2.0mph /  3.2km/h 39% 0.00in /  0mm 0.0 W/m2
00:54 49.6 °F /  9.8 °C 26.2 °F /  -3.2 °C 30.38in /  1028.7hPa ENE 2.0mph /  3.2km/h 3.0mph /  4.8km/h 40% 0.00in /  0mm 0.0 W/m2
01:00 49.5 °F /  9.7 °C 26.1 °F /  -3.3 °C 30.39in /  1029hPa ENE 2.0mph /  3.2km/h 3.0mph /  4.8km/h 40% 0.00in /  0mm 0.0 W/m2
01:06 49.3 °F /  9.6 °C 26.1 °F /  -3.3 °C 30.39in /  1029hPa Calm   1.0mph /  1.6km/h 40% 0.00in /  0mm 0.0 W/m2
01:12 49.1 °F /  9.5 °C 25.9 °F /  -3.4 °C 30.38in /  1028.7hPa Calm   1.0mph /  1.6km/h 40% 0.00in /  0mm 0.0 W/m2
01:18 48.9 °F /  9.4 °C 25.7 °F /  -3.5 °C 30.38in /  1028.7hPa East 2.0mph /  3.2km/h 2.0mph /  3.2km/h 40% 0.00in /  0mm 0.0 W/m2
01:24 48.7 °F /  9.3 °C 25.5 °F /  -3.6 °C 30.38in /  1028.7hPa Calm   1.0mph /  1.6km/h 40% 0.00in /  0mm 0.0 W/m2
01:30 48.7 °F /  9.3 °C 25.5 °F /  -3.6 °C 30.38in /  1028.7hPa Calm   1.0mph /  1.6km/h 40% 0.00in /  0mm 0.0 W/m2
01:36 48.7 °F /  9.3 °C 25.5 °F /  -3.6 °C 30.38in /  1028.7hPa Calm     40% 0.00in /  0mm 0.0 W/m2
01:42 48.7 °F /  9.3 °C 25.5 °F /  -3.6 °C 30.38in /  1028.7hPa Calm   1.0mph /  1.6km/h 40% 0.00in /  0mm 0.0 W/m2
01:48 48.6 °F /  9.2 °C 25.3 °F /  -3.7 °C 30.38in /  1028.7hPa Calm   3.0mph /  4.8km/h 40% 0.00in /  0mm 0.0 W/m2
01:54 48.4 °F /  9.1 °C 25.7 °F /  -3.5 °C 30.38in /  1028.7hPa Calm     41% 0.00in /  0mm 0.0 W/m2
02:00 48.0 °F /  8.9 °C 25.5 °F /  -3.6 °C 30.38in /  1028.7hPa Calm   2.0mph /  3.2km/h 41% 0.00in /  0mm 0.0 W/m2
02:06 47.8 °F /  8.8 °C 25.3 °F /  -3.7 °C 30.38in /  1028.7hPa Calm   1.0mph /  1.6km/h 41% 0.00in /  0mm 0.0 W/m2
02:12 47.7 °F /  8.7 °C 25.2 °F /  -3.8 °C 30.38in /  1028.7hPa Calm   2.0mph /  3.2km/h 41% 0.00in /  0mm 0.0 W/m2
02:18 47.5 °F /  8.6 °C 25.5 °F /  -3.6 °C 30.37in /  1028.3hPa Calm   1.0mph /  1.6km/h 42% 0.00in /  0mm 0.0 W/m2
02:24 47.5 °F /  8.6 °C 25.5 °F /  -3.6 °C 30.37in /  1028.3hPa Calm     42% 0.00in /  0mm 0.0 W/m2
02:30 47.1 °F /  8.4 °C 25.2 °F /  -3.8 °C 30.37in /  1028.3hPa Calm     42% 0.00in /  0mm 0.0 W/m2
02:36 46.9 °F /  8.3 °C 25.0 °F /  -3.9 °C 30.37in /  1028.3hPa Calm   2.0mph /  3.2km/h 42% 0.00in /  0mm 0.0 W/m2
02:42 46.8 °F /  8.2 °C 24.8 °F /  -4 °C 30.37in /  1028.3hPa ENE 0.9mph /  1.4km/h 5.0mph /  8km/h 42% 0.00in /  0mm 0.0 W/m2
02:48 46.8 °F /  8.2 °C 24.8 °F /  -4 °C 30.36in /  1028hPa Calm   1.0mph /  1.6km/h 42% 0.00in /  0mm 0.0 W/m2
02:54 46.6 °F /  8.1 °C 25.3 °F /  -3.7 °C 30.37in /  1028.3hPa Calm   1.0mph /  1.6km/h 43% 0.00in /  0mm 0.0 W/m2
03:00 46.6 °F /  8.1 °C 25.3 °F /  -3.7 °C 30.36in /  1028hPa Calm   2.0mph /  3.2km/h 43% 0.00in /  0mm 0.0 W/m2
03:06 46.4 °F /  8 °C 25.2 °F /  -3.8 °C 30.37in /  1028.3hPa Calm   1.0mph /  1.6km/h 43% 0.00in /  0mm 0.0 W/m2
03:12 46.2 °F /  7.9 °C 25.0 °F /  -3.9 °C 30.37in /  1028.3hPa Calm     43% 0.00in /  0mm 0.0 W/m2
03:18 46.2 °F /  7.9 °C 25.0 °F /  -3.9 °C 30.36in /  1028hPa Calm   2.0mph /  3.2km/h 43% 0.00in /  0mm 0.0 W/m2
03:24 46.0 °F /  7.8 °C 24.8 °F /  -4 °C 30.36in /  1028hPa Calm   1.0mph /  1.6km/h 43% 0.00in /  0mm 0.0 W/m2
03:30 45.9 °F /  7.7 °C 25.2 °F /  -3.8 °C 30.36in /  1028hPa Calm   1.0mph /  1.6km/h 44% 0.00in /  0mm 0.0 W/m2
03:36 45.9 °F /  7.7 °C 25.2 °F /  -3.8 °C 30.36in /  1028hPa Calm   1.0mph /  1.6km/h 44% 0.00in /  0mm 0.0 W/m2
03:42 45.7 °F /  7.6 °C 25.0 °F /  -3.9 °C 30.36in /  1028hPa Calm   2.0mph /  3.2km/h 44% 0.00in /  0mm 0.0 W/m2
03:48 45.7 °F /  7.6 °C 25.0 °F /  -3.9 °C 30.36in /  1028hPa Calm   1.0mph /  1.6km/h 44% 0.00in /  0mm 0.0 W/m2
03:54 45.7 °F /  7.6 °C 25.0 °F /  -3.9 °C 30.36in /  1028hPa Calm   1.0mph /  1.6km/h 44% 0.00in /  0mm 0.0 W/m2
04:00 45.5 °F /  7.5 °C 24.8 °F /  -4 °C 30.36in /  1028hPa Calm   1.0mph /  1.6km/h 44% 0.00in /  0mm 0.0 W/m2
04:06 45.3 °F /  7.4 °C 25.2 °F /  -3.8 °C 30.36in /  1028hPa East 0.9mph /  1.4km/h 2.0mph /  3.2km/h 45% 0.00in /  0mm 0.0 W/m2
04:12 45.3 °F /  7.4 °C 25.2 °F /  -3.8 °C 30.37in /  1028.3hPa Calm   2.0mph /  3.2km/h 45% 0.00in /  0mm 0.0 W/m2
04:18 45.1 °F /  7.3 °C 25.0 °F /  -3.9 °C 30.37in /  1028.3hPa Calm     45% 0.00in /  0mm 0.0 W/m2
04:24 45.1 °F /  7.3 °C 25.0 °F /  -3.9 °C 30.37in /  1028.3hPa Calm   1.0mph /  1.6km/h 45% 0.00in /  0mm 0.0 W/m2
04:30 45.0 °F /  7.2 °C 25.0 °F /  -3.9 °C 30.37in /  1028.3hPa Calm   1.0mph /  1.6km/h 45% 0.00in /  0mm 0.0 W/m2
04:36 45.0 °F /  7.2 °C 25.0 °F /  -3.9 °C 30.37in /  1028.3hPa Calm   2.0mph /  3.2km/h 45% 0.00in /  0mm 0.0 W/m2
04:42 45.0 °F /  7.2 °C 25.0 °F /  -3.9 °C 30.37in /  1028.3hPa Calm   2.0mph /  3.2km/h 45% 0.00in /  0mm 0.0 W/m2
04:48 45.0 °F /  7.2 °C 25.0 °F /  -3.9 °C 30.37in /  1028.3hPa Calm   2.0mph /  3.2km/h 45% 0.00in /  0mm 0.0 W/m2
04:54 45.0 °F /  7.2 °C 25.3 °F /  -3.7 °C 30.37in /  1028.3hPa Calm   5.0mph /  8km/h 46% 0.00in /  0mm 0.0 W/m2
05:00 45.0 °F /  7.2 °C 25.3 °F /  -3.7 °C 30.37in /  1028.3hPa Calm   3.0mph /  4.8km/h 46% 0.00in /  0mm 0.0 W/m2
05:06 45.0 °F /  7.2 °C 25.3 °F /  -3.7 °C 30.38in /  1028.7hPa Calm   2.0mph /  3.2km/h 46% 0.00in /  0mm 0.0 W/m2
05:12 44.8 °F /  7.1 °C 25.7 °F /  -3.5 °C 30.38in /  1028.7hPa Calm   2.0mph /  3.2km/h 47% 0.00in /  0mm 0.0 W/m2
05:18 44.8 °F /  7.1 °C 25.7 °F /  -3.5 °C 30.38in /  1028.7hPa Calm   3.0mph /  4.8km/h 47% 0.00in /  0mm 0.0 W/m2
05:25 44.6 °F /  7 °C 25.7 °F /  -3.5 °C 30.38in /  1028.7hPa Calm   2.0mph /  3.2km/h 47% 0.00in /  0mm 0.0 W/m2
05:31 44.4 °F /  6.9 °C 25.9 °F /  -3.4 °C 30.38in /  1028.7hPa East 0.9mph /  1.4km/h 1.0mph /  1.6km/h 48% 0.00in /  0mm 0.0 W/m2
05:37 44.4 °F /  6.9 °C 25.9 °F /  -3.4 °C 30.38in /  1028.7hPa Calm   2.0mph /  3.2km/h 48% 0.00in /  0mm 0.0 W/m2
05:43 44.4 °F /  6.9 °C 25.9 °F /  -3.4 °C 30.38in /  1028.7hPa Calm   2.0mph /  3.2km/h 48% 0.00in /  0mm 0.0 W/m2
05:49 44.4 °F /  6.9 °C 26.4 °F /  -3.1 °C 30.39in /  1029hPa Calm   3.0mph /  4.8km/h 49% 0.00in /  0mm 0.0 W/m2
05:55 44.2 °F /  6.8 °C 26.2 °F /  -3.2 °C 30.39in /  1029hPa Calm   2.0mph /  3.2km/h 49% 0.00in /  0mm 0.0 W/m2
06:01 44.2 °F /  6.8 °C 26.2 °F /  -3.2 °C 30.39in /  1029hPa Calm   3.0mph /  4.8km/h 49% 0.00in /  0mm 0.0 W/m2
06:08 44.4 °F /  6.9 °C 26.4 °F /  -3.1 °C 30.40in /  1029.3hPa Calm   1.0mph /  1.6km/h 49% 0.00in /  0mm 0.0 W/m2
06:14 44.4 °F /  6.9 °C 26.4 °F /  -3.1 °C 30.40in /  1029.3hPa Calm   3.0mph /  4.8km/h 49% 0.00in /  0mm 0.0 W/m2
06:20 44.2 °F /  6.8 °C 26.8 °F /  -2.9 °C 30.40in /  1029.3hPa Calm   1.0mph /  1.6km/h 50% 0.00in /  0mm 0.0 W/m2
06:26 44.2 °F /  6.8 °C 27.3 °F /  -2.6 °C 30.40in /  1029.3hPa Calm   1.0mph /  1.6km/h 51% 0.00in /  0mm 0.0 W/m2
06:32 44.2 °F /  6.8 °C 27.3 °F /  -2.6 °C 30.40in /  1029.3hPa Calm   1.0mph /  1.6km/h 51% 0.00in /  0mm 0.0 W/m2
06:38 44.2 °F /  6.8 °C 27.3 °F /  -2.6 °C 30.40in /  1029.3hPa Calm   2.0mph /  3.2km/h 51% 0.00in /  0mm 5.0 W/m2
06:45 44.2 °F /  6.8 °C 27.7 °F /  -2.4 °C 30.40in /  1029.3hPa Calm   3.0mph /  4.8km/h 52% 0.00in /  0mm 9.0 W/m2
06:51 44.2 °F /  6.8 °C 27.7 °F /  -2.4 °C 30.40in /  1029.3hPa Calm     52% 0.00in /  0mm 11.0 W/m2
06:57 44.4 °F /  6.9 °C 27.9 °F /  -2.3 °C 30.40in /  1029.3hPa Calm     52% 0.00in /  0mm 12.0 W/m2
07:03 44.4 °F /  6.9 °C 28.4 °F /  -2 °C 30.40in /  1029.3hPa Calm     53% 0.00in /  0mm 14.0 W/m2
07:09 44.4 °F /  6.9 °C 28.4 °F /  -2 °C 30.41in /  1029.7hPa Calm   1.0mph /  1.6km/h 53% 0.00in /  0mm 16.0 W/m2
07:16 44.6 °F /  7 °C 28.6 °F /  -1.9 °C 30.41in /  1029.7hPa Calm     53% 0.00in /  0mm 16.0 W/m2
07:21 44.8 °F /  7.1 °C 28.8 °F /  -1.8 °C 30.41in /  1029.7hPa NE 0.9mph /  1.4km/h 4.0mph /  6.4km/h 53% 0.00in /  0mm 18.0 W/m2
07:33 45.7 °F /  7.6 °C 29.1 °F /  -1.6 °C 30.42in /  1030hPa Calm     52% 0.00in /  0mm 21.0 W/m2
07:39 46.2 °F /  7.9 °C 29.5 °F /  -1.4 °C 30.42in /  1030hPa Calm     52% 0.00in /  0mm 21.0 W/m2
07:46 46.8 °F /  8.2 °C 30.0 °F /  -1.1 °C 30.42in /  1030hPa Calm     52% 0.00in /  0mm 25.0 W/m2
07:52 47.5 °F /  8.6 °C 30.7 °F /  -0.7 °C 30.43in /  1030.4hPa Calm     52% 0.00in /  0mm 54.0 W/m2
07:58 49.3 °F /  9.6 °C 31.5 °F /  -0.3 °C 30.43in /  1030.4hPa Calm     50% 0.00in /  0mm 253.0 W/m2
08:07 52.0 °F /  11.1 °C 32.9 °F /  0.5 °C 30.43in /  1030.4hPa Calm     48% 0.00in /  0mm 288.0 W/m2
08:13 54.0 °F /  12.2 °C 32.0 °F /  0 °C 30.43in /  1030.4hPa Calm   1.0mph /  1.6km/h 43% 0.00in /  0mm 308.0 W/m2
08:19 55.8 °F /  13.2 °C 31.8 °F /  -0.1 °C 30.43in /  1030.4hPa Calm     40% 0.00in /  0mm 327.0 W/m2
08:25 57.6 °F /  14.2 °C 32.2 °F /  0.1 °C 30.43in /  1030.4hPa NE 2.0mph /  3.2km/h 2.0mph /  3.2km/h 38% 0.00in /  0mm 343.0 W/m2
08:31 58.8 °F /  14.9 °C 32.0 °F /  0 °C 30.43in /  1030.4hPa Calm     36% 0.00in /  0mm 366.0 W/m2
08:37 60.1 °F /  15.6 °C 32.4 °F /  0.2 °C 30.43in /  1030.4hPa Calm   1.0mph /  1.6km/h 35% 0.00in /  0mm 383.0 W/m2
08:43 60.8 °F /  16 °C 32.2 °F /  0.1 °C 30.43in /  1030.4hPa Calm     34% 0.00in /  0mm 403.0 W/m2
08:49 61.3 °F /  16.3 °C 32.7 °F /  0.4 °C 30.43in /  1030.4hPa Calm   1.0mph /  1.6km/h 34% 0.00in /  0mm 418.0 W/m2
08:55 62.2 °F /  16.8 °C 32.7 °F /  0.4 °C 30.43in /  1030.4hPa Calm   1.0mph /  1.6km/h 33% 0.00in /  0mm 434.0 W/m2
09:03 63.0 °F /  17.2 °C 33.4 °F /  0.8 °C 30.43in /  1030.4hPa Calm   2.0mph /  3.2km/h 33% 0.00in /  0mm 454.0 W/m2
09:08 63.9 °F /  17.7 °C 31.8 °F /  -0.1 °C 30.42in /  1030hPa Calm   7.0mph /  11.3km/h 30% 0.00in /  0mm 471.0 W/m2
09:14 64.4 °F /  18 °C 32.4 °F /  0.2 °C 30.42in /  1030hPa NNE 6.0mph /  9.7km/h 8.0mph /  12.9km/h 30% 0.00in /  0mm 487.0 W/m2
09:20 64.8 °F /  18.2 °C 31.8 °F /  -0.1 °C 30.42in /  1030hPa North 6.0mph /  9.7km/h 7.0mph /  11.3km/h 29% 0.00in /  0mm 501.0 W/m2
09:26 64.8 °F /  18.2 °C 30.9 °F /  -0.6 °C 30.42in /  1030hPa NNE 2.0mph /  3.2km/h 6.0mph /  9.7km/h 28% 0.00in /  0mm 515.0 W/m2
09:33 65.3 °F /  18.5 °C 31.3 °F /  -0.4 °C 30.42in /  1030hPa Calm   9.0mph /  14.5km/h 28% 0.00in /  0mm 531.0 W/m2
09:38 65.7 °F /  18.7 °C 31.6 °F /  -0.2 °C 30.42in /  1030hPa Calm   6.0mph /  9.7km/h 28% 0.00in /  0mm 543.0 W/m2
09:44 66.0 °F /  18.9 °C 31.1 °F /  -0.5 °C 30.42in /  1030hPa NNE 4.9mph /  7.9km/h 13.0mph /  20.9km/h 27% 0.00in /  0mm 555.0 W/m2
09:50 66.2 °F /  19 °C 31.3 °F /  -0.4 °C 30.42in /  1030hPa East 2.9mph /  4.7km/h 9.0mph /  14.5km/h 27% 0.00in /  0mm 568.0 W/m2
09:56 66.4 °F /  19.1 °C 31.5 °F /  -0.3 °C 30.42in /  1030hPa East 6.9mph /  11.1km/h 9.0mph /  14.5km/h 27% 0.00in /  0mm 578.0 W/m2
10:03 66.6 °F /  19.2 °C 31.5 °F /  -0.3 °C 30.42in /  1030hPa NE 6.9mph /  11.1km/h 9.0mph /  14.5km/h 27% 0.00in /  0mm 591.0 W/m2
10:08 66.6 °F /  19.2 °C 31.5 °F /  -0.3 °C 30.42in /  1030hPa NE 4.0mph /  6.4km/h 7.0mph /  11.3km/h 27% 0.00in /  0mm 601.0 W/m2
10:14 66.7 °F /  19.3 °C 31.6 °F /  -0.2 °C 30.42in /  1030hPa Calm   12.0mph /  19.3km/h 27% 0.00in /  0mm 610.0 W/m2
10:23 67.3 °F /  19.6 °C 32.2 °F /  0.1 °C 30.41in /  1029.7hPa Calm   5.0mph /  8km/h 27% 0.00in /  0mm 622.0 W/m2
10:30 67.6 °F /  19.8 °C 31.5 °F /  -0.3 °C 30.40in /  1029.3hPa NW 4.9mph /  7.9km/h 6.0mph /  9.7km/h 26% 0.00in /  0mm 633.0 W/m2
10:36 67.6 °F /  19.8 °C 32.5 °F /  0.3 °C 30.40in /  1029.3hPa East 0.9mph /  1.4km/h 8.0mph /  12.9km/h 27% 0.00in /  0mm 645.0 W/m2
10:42 67.8 °F /  19.9 °C 31.6 °F /  -0.2 °C 30.40in /  1029.3hPa ESE 6.9mph /  11.1km/h 9.0mph /  14.5km/h 26% 0.00in /  0mm 650.0 W/m2
10:48 68.0 °F /  20 °C 31.8 °F /  -0.1 °C 30.40in /  1029.3hPa NNE 2.9mph /  4.7km/h 9.0mph /  14.5km/h 26% 0.00in /  0mm 654.0 W/m2
10:53 68.2 °F /  20.1 °C 32.0 °F /  0 °C 30.39in /  1029hPa NW 0.9mph /  1.4km/h 7.0mph /  11.3km/h 26% 0.00in /  0mm 661.0 W/m2
10:59 68.5 °F /  20.3 °C 32.4 °F /  0.2 °C 30.39in /  1029hPa North 2.0mph /  3.2km/h 11.0mph /  17.7km/h 26% 0.00in /  0mm 664.0 W/m2
11:05 68.7 °F /  20.4 °C 31.5 °F /  -0.3 °C 30.39in /  1029hPa NNE 4.0mph /  6.4km/h 4.0mph /  6.4km/h 25% 0.00in /  0mm 671.0 W/m2
11:11 69.3 °F /  20.7 °C 32.0 °F /  0 °C 30.39in /  1029hPa NE 8.1mph /  13km/h 13.0mph /  20.9km/h 25% 0.00in /  0mm 675.0 W/m2
11:18 69.1 °F /  20.6 °C 31.8 °F /  -0.1 °C 30.39in /  1029hPa North 0.9mph /  1.4km/h 7.0mph /  11.3km/h 25% 0.00in /  0mm 682.0 W/m2
11:23 69.1 °F /  20.6 °C 31.8 °F /  -0.1 °C 30.38in /  1028.7hPa North 2.0mph /  3.2km/h 7.0mph /  11.3km/h 25% 0.00in /  0mm 682.0 W/m2
11:29 69.4 °F /  20.8 °C 32.0 °F /  0 °C 30.38in /  1028.7hPa NW 0.9mph /  1.4km/h 6.0mph /  9.7km/h 25% 0.00in /  0mm 684.0 W/m2
11:35 69.6 °F /  20.9 °C 31.3 °F /  -0.4 °C 30.38in /  1028.7hPa NE 4.9mph /  7.9km/h 8.0mph /  12.9km/h 24% 0.00in /  0mm 686.0 W/m2
11:41 70.0 °F /  21.1 °C 31.5 °F /  -0.3 °C 30.37in /  1028.3hPa NNW 6.0mph /  9.7km/h 11.0mph /  17.7km/h 24% 0.00in /  0mm 687.0 W/m2
11:49 70.0 °F /  21.1 °C 31.5 °F /  -0.3 °C 30.37in /  1028.3hPa ENE 4.9mph /  7.9km/h 7.0mph /  11.3km/h 24% 0.00in /  0mm 691.0 W/m2
11:56 70.2 °F /  21.2 °C 31.6 °F /  -0.2 °C 30.36in /  1028hPa NNW 2.9mph /  4.7km/h 7.0mph /  11.3km/h 24% 0.00in /  0mm 687.0 W/m2
12:02 70.3 °F /  21.3 °C 30.7 °F /  -0.7 °C 30.36in /  1028hPa Calm   7.0mph /  11.3km/h 23% 0.00in /  0mm 684.0 W/m2
12:08 70.5 °F /  21.4 °C 30.9 °F /  -0.6 °C 30.36in /  1028hPa ESE 0.9mph /  1.4km/h 6.0mph /  9.7km/h 23% 0.00in /  0mm 686.0 W/m2
12:14 70.9 °F /  21.6 °C 32.4 °F /  0.2 °C 30.35in /  1027.7hPa ENE 11.0mph /  17.7km/h 11.0mph /  17.7km/h 24% 0.00in /  0mm 680.0 W/m2
12:20 71.1 °F /  21.7 °C 31.5 °F /  -0.3 °C 30.35in /  1027.7hPa NNE 0.9mph /  1.4km/h 7.0mph /  11.3km/h 23% 0.00in /  0mm 680.0 W/m2
12:26 71.1 °F /  21.7 °C 31.5 °F /  -0.3 °C 30.34in /  1027.3hPa Calm   9.0mph /  14.5km/h 23% 0.00in /  0mm 671.0 W/m2
12:32 71.1 °F /  21.7 °C 32.4 °F /  0.2 °C 30.34in /  1027.3hPa NE 0.9mph /  1.4km/h 4.0mph /  6.4km/h 24% 0.00in /  0mm 668.0 W/m2
12:38 71.2 °F /  21.8 °C 32.5 °F /  0.3 °C 30.33in /  1027hPa NNE 2.9mph /  4.7km/h 5.0mph /  8km/h 24% 0.00in /  0mm 664.0 W/m2
12:44 71.2 °F /  21.8 °C 31.5 °F /  -0.3 °C 30.33in /  1027hPa North 2.9mph /  4.7km/h 11.0mph /  17.7km/h 23% 0.00in /  0mm 663.0 W/m2
12:50 71.2 °F /  21.8 °C 31.5 °F /  -0.3 °C 30.32in /  1026.6hPa NE 2.0mph /  3.2km/h 7.0mph /  11.3km/h 23% 0.00in /  0mm 654.0 W/m2
12:56 71.6 °F /  22 °C 32.9 °F /  0.5 °C 30.32in /  1026.6hPa Calm   2.0mph /  3.2km/h 24% 0.00in /  0mm 645.0 W/m2
13:02 72.0 °F /  22.2 °C 32.2 °F /  0.1 °C 30.32in /  1026.6hPa NE 6.0mph /  9.7km/h 10.0mph /  16.1km/h 23% 0.00in /  0mm 640.0 W/m2
13:09 72.0 °F /  22.2 °C 32.2 °F /  0.1 °C 30.31in /  1026.3hPa East 2.9mph /  4.7km/h 5.0mph /  8km/h 23% 0.00in /  0mm 633.0 W/m2
13:14 72.0 °F /  22.2 °C 31.1 °F /  -0.5 °C 30.31in /  1026.3hPa Calm   12.0mph /  19.3km/h 22% 0.00in /  0mm 624.0 W/m2
13:20 71.4 °F /  21.9 °C 31.6 °F /  -0.2 °C 30.31in /  1026.3hPa NW 6.0mph /  9.7km/h 12.0mph /  19.3km/h 23% 0.00in /  0mm 613.0 W/m2
13:26 71.6 °F /  22 °C 31.8 °F /  -0.1 °C 30.30in /  1026hPa Calm   1.0mph /  1.6km/h 23% 0.00in /  0mm 603.0 W/m2
13:33 71.8 °F /  22.1 °C 32.0 °F /  0 °C 30.30in /  1026hPa NE 0.9mph /  1.4km/h 4.0mph /  6.4km/h 23% 0.00in /  0mm 592.0 W/m2
13:39 71.8 °F /  22.1 °C 30.9 °F /  -0.6 °C 30.30in /  1026hPa NE 2.9mph /  4.7km/h 10.0mph /  16.1km/h 22% 0.00in /  0mm 584.0 W/m2
13:45 71.8 °F /  22.1 °C 32.0 °F /  0 °C 30.30in /  1026hPa Calm   8.0mph /  12.9km/h 23% 0.00in /  0mm 571.0 W/m2
13:51 71.6 °F /  22 °C 31.8 °F /  -0.1 °C 30.30in /  1026hPa North 2.0mph /  3.2km/h 5.0mph /  8km/h 23% 0.00in /  0mm 557.0 W/m2
13:57 71.6 °F /  22 °C 31.8 °F /  -0.1 °C 30.29in /  1025.6hPa Calm   5.0mph /  8km/h 23% 0.00in /  0mm 543.0 W/m2
14:03 71.8 °F /  22.1 °C 30.9 °F /  -0.6 °C 30.30in /  1026hPa North 2.0mph /  3.2km/h 9.0mph /  14.5km/h 22% 0.00in /  0mm 533.0 W/m2
14:10 72.0 °F /  22.2 °C 31.1 °F /  -0.5 °C 30.29in /  1025.6hPa Calm   5.0mph /  8km/h 22% 0.00in /  0mm 517.0 W/m2
14:16 71.8 °F /  22.1 °C 32.0 °F /  0 °C 30.29in /  1025.6hPa ENE 0.9mph /  1.4km/h 9.0mph /  14.5km/h 23% 0.00in /  0mm 503.0 W/m2
14:22 71.8 °F /  22.1 °C 30.9 °F /  -0.6 °C 30.29in /  1025.6hPa ENE 0.9mph /  1.4km/h 6.0mph /  9.7km/h 22% 0.00in /  0mm 489.0 W/m2
14:28 71.8 °F /  22.1 °C 32.0 °F /  0 °C 30.29in /  1025.6hPa Calm   6.0mph /  9.7km/h 23% 0.00in /  0mm 469.0 W/m2
14:34 71.8 °F /  22.1 °C 30.9 °F /  -0.6 °C 30.29in /  1025.6hPa SE 2.0mph /  3.2km/h 7.0mph /  11.3km/h 22% 0.00in /  0mm 457.0 W/m2
14:40 72.0 °F /  22.2 °C 31.1 °F /  -0.5 °C 30.29in /  1025.6hPa NW 0.9mph /  1.4km/h 4.0mph /  6.4km/h 22% 0.00in /  0mm 439.0 W/m2
14:46 72.1 °F /  22.3 °C 31.1 °F /  -0.5 °C 30.29in /  1025.6hPa Calm   2.0mph /  3.2km/h 22% 0.00in /  0mm 422.0 W/m2
14:52 72.1 °F /  22.3 °C 31.1 °F /  -0.5 °C 30.29in /  1025.6hPa Calm   5.0mph /  8km/h 22% 0.00in /  0mm 408.0 W/m2
14:59 72.0 °F /  22.2 °C 31.1 °F /  -0.5 °C 30.29in /  1025.6hPa Calm   4.0mph /  6.4km/h 22% 0.00in /  0mm 388.0 W/m2
15:05 71.8 °F /  22.1 °C 29.7 °F /  -1.3 °C 30.29in /  1025.6hPa Calm   4.0mph /  6.4km/h 21% 0.00in /  0mm 371.0 W/m2
15:11 71.4 °F /  21.9 °C 30.6 °F /  -0.8 °C 30.29in /  1025.6hPa East 2.9mph /  4.7km/h 4.0mph /  6.4km/h 22% 0.00in /  0mm 352.0 W/m2
15:17 71.2 °F /  21.8 °C 30.4 °F /  -0.9 °C 30.29in /  1025.6hPa Calm     22% 0.00in /  0mm 332.0 W/m2
15:23 71.1 °F /  21.7 °C 31.5 °F /  -0.3 °C 30.29in /  1025.6hPa ESE 2.9mph /  4.7km/h 4.0mph /  6.4km/h 23% 0.00in /  0mm 47.0 W/m2
15:29 70.9 °F /  21.6 °C 31.3 °F /  -0.4 °C 30.29in /  1025.6hPa Calm   8.0mph /  12.9km/h 23% 0.00in /  0mm 42.0 W/m2
15:35 70.9 °F /  21.6 °C 31.3 °F /  -0.4 °C 30.29in /  1025.6hPa Calm   8.0mph /  12.9km/h 23% 0.00in /  0mm 40.0 W/m2
15:42 70.5 °F /  21.4 °C 29.8 °F /  -1.2 °C 30.29in /  1025.6hPa NE 2.9mph /  4.7km/h 5.0mph /  8km/h 22% 0.00in /  0mm 39.0 W/m2
15:48 70.3 °F /  21.3 °C 29.7 °F /  -1.3 °C 30.29in /  1025.6hPa NNE 2.0mph /  3.2km/h 5.0mph /  8km/h 22% 0.00in /  0mm 37.0 W/m2
15:54 70.2 °F /  21.2 °C 29.5 °F /  -1.4 °C 30.29in /  1025.6hPa NNE 2.0mph /  3.2km/h 5.0mph /  8km/h 22% 0.00in /  0mm 35.0 W/m2
16:00 69.4 °F /  20.8 °C 30.0 °F /  -1.1 °C 30.29in /  1025.6hPa NE 0.9mph /  1.4km/h 3.0mph /  4.8km/h 23% 0.00in /  0mm 32.0 W/m2
16:06 69.3 °F /  20.7 °C 29.8 °F /  -1.2 °C 30.29in /  1025.6hPa NNE 2.9mph /  4.7km/h 3.0mph /  4.8km/h 23% 0.00in /  0mm 26.0 W/m2
16:12 69.1 °F /  20.6 °C 30.7 °F /  -0.7 °C 30.29in /  1025.6hPa East 6.0mph /  9.7km/h 6.0mph /  9.7km/h 24% 0.00in /  0mm 23.0 W/m2
16:18 68.7 °F /  20.4 °C 30.4 °F /  -0.9 °C 30.30in /  1026hPa East 2.9mph /  4.7km/h 3.0mph /  4.8km/h 24% 0.00in /  0mm 21.0 W/m2
16:25 68.4 °F /  20.2 °C 29.1 °F /  -1.6 °C 30.30in /  1026hPa NE 0.9mph /  1.4km/h 5.0mph /  8km/h 23% 0.00in /  0mm 21.0 W/m2
16:31 68.2 °F /  20.1 °C 28.9 °F /  -1.7 °C 30.30in /  1026hPa SE 4.9mph /  7.9km/h 5.0mph /  8km/h 23% 0.00in /  0mm 19.0 W/m2
16:37 67.8 °F /  19.9 °C 28.6 °F /  -1.9 °C 30.30in /  1026hPa ENE 0.9mph /  1.4km/h 4.0mph /  6.4km/h 23% 0.00in /  0mm 18.0 W/m2
16:43 67.5 °F /  19.7 °C 29.5 °F /  -1.4 °C 30.30in /  1026hPa NE 2.9mph /  4.7km/h 4.0mph /  6.4km/h 24% 0.00in /  0mm 16.0 W/m2
16:49 67.3 °F /  19.6 °C 30.2 °F /  -1 °C 30.30in /  1026hPa Calm   3.0mph /  4.8km/h 25% 0.00in /  0mm 14.0 W/m2
16:55 66.9 °F /  19.4 °C 30.0 °F /  -1.1 °C 30.30in /  1026hPa ENE 0.9mph /  1.4km/h 6.0mph /  9.7km/h 25% 0.00in /  0mm 12.0 W/m2
17:01 66.6 °F /  19.2 °C 28.6 °F /  -1.9 °C 30.30in /  1026hPa Calm   3.0mph /  4.8km/h 24% 0.00in /  0mm 11.0 W/m2
17:07 66.0 °F /  18.9 °C 28.2 °F /  -2.1 °C 30.30in /  1026hPa Calm   4.0mph /  6.4km/h 24% 0.00in /  0mm 7.0 W/m2
17:14 65.7 °F /  18.7 °C 28.9 °F /  -1.7 °C 30.30in /  1026hPa Calm     25% 0.00in /  0mm 5.0 W/m2
17:20 65.1 °F /  18.4 °C 29.3 °F /  -1.5 °C 30.31in /  1026.3hPa Calm     26% 0.00in /  0mm 0.0 W/m2
17:26 64.8 °F /  18.2 °C 29.1 °F /  -1.6 °C 30.31in /  1026.3hPa Calm     26% 0.00in /  0mm 0.0 W/m2
17:32 64.0 °F /  17.8 °C 29.3 °F /  -1.5 °C 30.31in /  1026.3hPa Calm     27% 0.00in /  0mm 0.0 W/m2
17:38 63.3 °F /  17.4 °C 28.8 °F /  -1.8 °C 30.31in /  1026.3hPa Calm     27% 0.00in /  0mm 0.0 W/m2
17:45 62.2 °F /  16.8 °C 28.8 °F /  -1.8 °C 30.32in /  1026.6hPa Calm     28% 0.00in /  0mm 0.0 W/m2
17:50 61.3 °F /  16.3 °C 28.8 °F /  -1.8 °C 30.32in /  1026.6hPa Calm     29% 0.00in /  0mm 0.0 W/m2
17:57 60.6 °F /  15.9 °C 28.9 °F /  -1.7 °C 30.32in /  1026.6hPa Calm     30% 0.00in /  0mm 0.0 W/m2
18:03 59.9 °F /  15.5 °C 29.1 °F /  -1.6 °C 30.32in /  1026.6hPa Calm     31% 0.00in /  0mm 0.0 W/m2
18:09 59.2 °F /  15.1 °C 28.6 °F /  -1.9 °C 30.32in /  1026.6hPa Calm     31% 0.00in /  0mm 0.0 W/m2
18:15 58.6 °F /  14.8 °C 28.9 °F /  -1.7 °C 30.32in /  1026.6hPa Calm     32% 0.00in /  0mm 0.0 W/m2
18:19 58.3 °F /  14.6 °C 28.6 °F /  -1.9 °C 30.32in /  1026.6hPa Calm     32% 0.00in /  0mm 0.0 W/m2
18:25 57.7 °F /  14.3 °C 28.8 °F /  -1.8 °C 30.33in /  1027hPa Calm     33% 0.00in /  0mm 0.0 W/m2
18:31 57.2 °F /  14 °C 29.1 °F /  -1.6 °C 30.33in /  1027hPa Calm     34% 0.00in /  0mm 0.0 W/m2
18:37 56.7 °F /  13.7 °C 28.6 °F /  -1.9 °C 30.33in /  1027hPa Calm     34% 0.00in /  0mm 0.0 W/m2
18:43 56.1 °F /  13.4 °C 28.8 °F /  -1.8 °C 30.33in /  1027hPa Calm     35% 0.00in /  0mm 0.0 W/m2
18:50 55.8 °F /  13.2 °C 28.6 °F /  -1.9 °C 30.34in /  1027.3hPa Calm     35% 0.00in /  0mm 0.0 W/m2
18:56 55.4 °F /  13 °C 28.9 °F /  -1.7 °C 30.33in /  1027hPa Calm     36% 0.00in /  0mm 0.0 W/m2
19:02 55.0 °F /  12.8 °C 28.6 °F /  -1.9 °C 30.33in /  1027hPa Calm     36% 0.00in /  0mm 0.0 W/m2
19:08 54.7 °F /  12.6 °C 28.9 °F /  -1.7 °C 30.33in /  1027hPa Calm     37% 0.00in /  0mm 0.0 W/m2
19:14 54.3 °F /  12.4 °C 28.6 °F /  -1.9 °C 30.34in /  1027.3hPa Calm   1.0mph /  1.6km/h 37% 0.00in /  0mm 0.0 W/m2
19:20 54.1 °F /  12.3 °C 28.4 °F /  -2 °C 30.34in /  1027.3hPa Calm     37% 0.00in /  0mm 0.0 W/m2
19:26 53.8 °F /  12.1 °C 28.8 °F /  -1.8 °C 30.34in /  1027.3hPa Calm     38% 0.00in /  0mm 0.0 W/m2
19:32 53.6 °F /  12 °C 28.6 °F /  -1.9 °C 30.34in /  1027.3hPa Calm     38% 0.00in /  0mm 0.0 W/m2
19:39 53.2 °F /  11.8 °C 28.2 °F /  -2.1 °C 30.34in /  1027.3hPa Calm     38% 0.00in /  0mm 0.0 W/m2
19:45 53.1 °F /  11.7 °C 28.8 °F /  -1.8 °C 30.35in /  1027.7hPa Calm     39% 0.00in /  0mm 0.0 W/m2
19:51 52.9 °F /  11.6 °C 28.6 °F /  -1.9 °C 30.35in /  1027.7hPa Calm     39% 0.00in /  0mm 0.0 W/m2
19:57 52.7 °F /  11.5 °C 28.4 °F /  -2 °C 30.35in /  1027.7hPa Calm   3.0mph /  4.8km/h 39% 0.00in /  0mm 0.0 W/m2
20:03 52.5 °F /  11.4 °C 28.2 °F /  -2.1 °C 30.35in /  1027.7hPa Calm   1.0mph /  1.6km/h 39% 0.00in /  0mm 0.0 W/m2
20:10 52.3 °F /  11.3 °C 28.0 °F /  -2.2 °C 30.35in /  1027.7hPa Calm     39% 0.00in /  0mm 0.0 W/m2
20:16 52.3 °F /  11.3 °C 28.0 °F /  -2.2 °C 30.35in /  1027.7hPa Calm   1.0mph /  1.6km/h 39% 0.00in /  0mm 0.0 W/m2
20:22 52.2 °F /  11.2 °C 28.6 °F /  -1.9 °C 30.35in /  1027.7hPa Calm   1.0mph /  1.6km/h 40% 0.00in /  0mm 0.0 W/m2
20:28 51.8 °F /  11 °C 28.2 °F /  -2.1 °C 30.35in /  1027.7hPa Calm     40% 0.00in /  0mm 0.0 W/m2
20:34 51.4 °F /  10.8 °C 27.9 °F /  -2.3 °C 30.35in /  1027.7hPa Calm   2.0mph /  3.2km/h 40% 0.00in /  0mm 0.0 W/m2
20:40 51.3 °F /  10.7 °C 28.4 °F /  -2 °C 30.35in /  1027.7hPa Calm   1.0mph /  1.6km/h 41% 0.00in /  0mm 0.0 W/m2
20:46 51.1 °F /  10.6 °C 28.2 °F /  -2.1 °C 30.35in /  1027.7hPa Calm   1.0mph /  1.6km/h 41% 0.00in /  0mm 0.0 W/m2
20:52 50.7 °F /  10.4 °C 27.9 °F /  -2.3 °C 30.35in /  1027.7hPa Calm     41% 0.00in /  0mm 0.0 W/m2
20:58 50.7 °F /  10.4 °C 27.9 °F /  -2.3 °C 30.35in /  1027.7hPa Calm   1.0mph /  1.6km/h 41% 0.00in /  0mm 0.0 W/m2
21:05 50.5 °F /  10.3 °C 27.7 °F /  -2.4 °C 30.35in /  1027.7hPa Calm     41% 0.00in /  0mm 0.0 W/m2
21:11 50.5 °F /  10.3 °C 27.7 °F /  -2.4 °C 30.35in /  1027.7hPa Calm   2.0mph /  3.2km/h 41% 0.00in /  0mm 0.0 W/m2
21:17 50.4 °F /  10.2 °C 28.2 °F /  -2.1 °C 30.36in /  1028hPa Calm   1.0mph /  1.6km/h 42% 0.00in /  0mm 0.0 W/m2
21:23 50.2 °F /  10.1 °C 28.0 °F /  -2.2 °C 30.36in /  1028hPa Calm     42% 0.00in /  0mm 0.0 W/m2
21:29 50.2 °F /  10.1 °C 28.0 °F /  -2.2 °C 30.36in /  1028hPa Calm     42% 0.00in /  0mm 0.0 W/m2
21:35 50.2 °F /  10.1 °C 28.0 °F /  -2.2 °C 30.36in /  1028hPa Calm   1.0mph /  1.6km/h 42% 0.00in /  0mm 0.0 W/m2
21:42 50.0 °F /  10 °C 27.9 °F /  -2.3 °C 30.36in /  1028hPa Calm   1.0mph /  1.6km/h 42% 0.00in /  0mm 0.0 W/m2
21:48 49.8 °F /  9.9 °C 27.7 °F /  -2.4 °C 30.36in /  1028hPa Calm   1.0mph /  1.6km/h 42% 0.00in /  0mm 0.0 W/m2
21:54 49.8 °F /  9.9 °C 27.7 °F /  -2.4 °C 30.36in /  1028hPa Calm   1.0mph /  1.6km/h 42% 0.00in /  0mm 0.0 W/m2
22:00 49.6 °F /  9.8 °C 27.5 °F /  -2.5 °C 30.36in /  1028hPa Calm     42% 0.00in /  0mm 0.0 W/m2
22:06 49.5 °F /  9.7 °C 27.3 °F /  -2.6 °C 30.36in /  1028hPa Calm   1.0mph /  1.6km/h 42% 0.00in /  0mm 0.0 W/m2
22:12 49.5 °F /  9.7 °C 27.9 °F /  -2.3 °C 30.36in /  1028hPa Calm   3.0mph /  4.8km/h 43% 0.00in /  0mm 0.0 W/m2
22:18 49.3 °F /  9.6 °C 27.7 °F /  -2.4 °C 30.36in /  1028hPa Calm   1.0mph /  1.6km/h 43% 0.00in /  0mm 0.0 W/m2
22:25 48.9 °F /  9.4 °C 27.3 °F /  -2.6 °C 30.36in /  1028hPa Calm   2.0mph /  3.2km/h 43% 0.00in /  0mm 0.0 W/m2
22:31 48.7 °F /  9.3 °C 27.3 °F /  -2.6 °C 30.36in /  1028hPa Calm   1.0mph /  1.6km/h 43% 0.00in /  0mm 0.0 W/m2
22:37 48.6 °F /  9.2 °C 27.7 °F /  -2.4 °C 30.36in /  1028hPa Calm     44% 0.00in /  0mm 0.0 W/m2
22:43 48.4 °F /  9.1 °C 27.5 °F /  -2.5 °C 30.36in /  1028hPa Calm   2.0mph /  3.2km/h 44% 0.00in /  0mm 0.0 W/m2
22:49 48.0 °F /  8.9 °C 27.1 °F /  -2.7 °C 30.36in /  1028hPa Calm   1.0mph /  1.6km/h 44% 0.00in /  0mm 0.0 W/m2
22:55 48.0 °F /  8.9 °C 27.1 °F /  -2.7 °C 30.36in /  1028hPa Calm     44% 0.00in /  0mm 0.0 W/m2
23:01 47.7 °F /  8.7 °C 27.3 °F /  -2.6 °C 30.36in /  1028hPa Calm   1.0mph /  1.6km/h 45% 0.00in /  0mm 0.0 W/m2
23:07 47.7 °F /  8.7 °C 27.3 °F /  -2.6 °C 30.36in /  1028hPa Calm     45% 0.00in /  0mm 0.0 W/m2
23:13 47.5 °F /  8.6 °C 27.7 °F /  -2.4 °C 30.36in /  1028hPa Calm   1.0mph /  1.6km/h 46% 0.00in /  0mm 0.0 W/m2
23:19 47.5 °F /  8.6 °C 27.7 °F /  -2.4 °C 30.35in /  1027.7hPa East 0.9mph /  1.4km/h 1.0mph /  1.6km/h 46% 0.00in /  0mm 0.0 W/m2
23:26 47.5 °F /  8.6 °C 27.7 °F /  -2.4 °C 30.35in /  1027.7hPa Calm   1.0mph /  1.6km/h 46% 0.00in /  0mm 0.0 W/m2
23:32 47.5 °F /  8.6 °C 27.7 °F /  -2.4 °C 30.35in /  1027.7hPa Calm     46% 0.00in /  0mm 0.0 W/m2
23:38 47.7 °F /  8.7 °C 27.9 °F /  -2.3 °C 30.35in /  1027.7hPa Calm     46% 0.00in /  0mm 0.0 W/m2
23:44 47.8 °F /  8.8 °C 28.0 °F /  -2.2 °C 30.35in /  1027.7hPa Calm     46% 0.00in /  0mm 0.0 W/m2
23:50 47.8 °F /  8.8 °C 28.0 °F /  -2.2 °C 30.35in /  1027.7hPa Calm   4.0mph /  6.4km/h 46% 0.00in /  0mm 0.0 W/m2
23:52 48.0 °F /  8.9 °C 28.2 °F /  -2.1 °C 30.35in /  1027.7hPa Calm   2.0mph /  3.2km/h 46% 0.00in /  0mm 0.0 W/m2
23:58 48.0 °F /  8.9 °C 27.7 °F /  -2.4 °C 30.35in /  1027.7hPa Calm     45% 0.00in /  0mm 0.0 W/m2
Olympia, Windhoek, Namibia
Compliments of Weather Underground - 3 mb